El Centro Naf Airport El Centro US
ICAO: KNJK
IATA: NJK
Category: Medium
Scheduled Services: No

Elevation: -42 ft
TransAlt. 18000 ft.

Airport Communications:
ATIS:26.927
CLNC DEL:34.02
GND:121.9
PMSV METRO:34.83
TWR:119.1

KNJK Zoom In..

Runways:

(A) RW 08 length 9503 ft width 200 ft
---- / hdg 77

(B) RW 12 length 6824 ft width 200 ft
---- / hdg 122

(C) RW 26 length 9503 ft width 200 ft
---- / hdg 257

(D) RW 30 length 6824 ft width 200 ft
---- / hdg 302

Location; KNJK
Day. 20 / Time. 09.56 Zulu
* Altimeter: 29.98
* Temperature: 12° c. 53.6°f.
* Wind from: 230° Speed 07 kn.
Dewpoint: 02° c.
Visibility: 10 Statute Miles.
Clouds: Clear (automated report).

KNJK 200956Z AUTO 23007KT 10SM CLR 12/02 A2998 RMK AO2 SLP169 T01220017


Wind From 230°
Speed 07 kn.

  YouTube Music Video
 
jpsmedia.com for Web Design  worldairports.se 2018   terms of use